Time;durP1;ratioP1;P1;durP2;ratioP2;P2;SDS_P1;SDS_P2;PMS_P1;PMS_P2;Temp;Humidity;BMP_temperature;BMP_pressure;BME280_temperature;BME280_humidity;BME280_pressure;Samples;Min_cycle;Max_cycle;Signal;HPM_P1;HPM_P2
2022/02/02 00:01:44;;;;;;;1.53;1.43;;;;;;;4.51;94.72;95196.56;5064907;28;20185;-84
2022/02/02 00:04:14;;;;;;;1.83;1.43;;;;;;;4.54;95.77;95205.66;5069693;28;20267;-84
2022/02/02 00:06:46;;;;;;;1.40;1.30;;;;;;;4.55;94.20;95189.44;5070013;28;20231;-84
2022/02/02 00:09:17;;;;;;;1.40;1.30;;;;;;;4.56;94.70;95189.28;5069589;28;20607;-83
2022/02/02 00:14:38;;;;;;;2.07;1.20;;;;;;;4.68;95.02;95228.06;5069264;28;20596;-83
2022/02/02 00:17:10;;;;;;;1.30;1.20;;;;;;;4.59;94.02;95229.78;5069167;28;20622;-84
2022/02/02 00:19:46;;;;;;;1.30;1.20;;;;;;;4.62;94.74;95213.38;5069538;28;20188;-81
2022/02/02 00:22:16;;;;;;;2.03;1.23;;;;;;;4.55;94.20;95200.44;5069438;28;20220;-83
2022/02/02 00:25:01;;;;;;;1.33;1.23;;;;;;;4.65;94.38;95230.91;5068936;28;20579;-83
2022/02/02 00:27:28;;;;;;;1.47;1.23;;;;;;;4.64;94.49;95216.56;5063862;28;20205;-83
2022/02/02 00:29:59;;;;;;;2.70;1.50;;;;;;;4.61;94.10;95222.78;5069594;28;20242;-83
2022/02/02 00:32:42;;;;;;;1.33;1.23;;;;;;;4.61;93.88;95214.34;5063277;28;20197;-85
2022/02/02 00:35:10;;;;;;;1.30;1.20;;;;;;;4.61;94.21;95209.25;5068538;28;20590;-83
2022/02/02 00:37:36;;;;;;;2.23;1.50;;;;;;;4.66;93.17;95228.22;5069723;28;20217;-84
2022/02/02 00:40:06;;;;;;;2.00;1.33;;;;;;;4.72;92.86;95242.13;5068873;28;20195;-81
2022/02/02 00:42:32;;;;;;;1.30;1.20;;;;;;;4.69;92.76;95255.97;5069281;28;20255;-83
2022/02/02 00:44:59;;;;;;;2.63;1.30;;;;;;;4.67;92.78;95246.88;5068273;28;20727;-84
2022/02/02 00:47:26;;;;;;;1.83;1.40;;;;;;;4.63;93.86;95222.59;5069362;28;20216;-84
2022/02/02 00:49:54;;;;;;;1.63;1.50;;;;;;;4.64;96.14;95203.81;5069095;28;20219;-80
2022/02/02 00:52:22;;;;;;;2.63;1.60;;;;;;;4.64;97.28;95212.25;5069452;28;20192;-83
2022/02/02 00:54:48;;;;;;;2.47;1.90;;;;;;;4.73;96.67;95220.78;5068941;28;20315;-83
2022/02/02 00:57:16;;;;;;;2.33;1.80;;;;;;;4.69;97.48;95217.72;5069137;28;20229;-83
2022/02/02 00:59:42;;;;;;;2.60;1.93;;;;;;;4.78;97.35;95208.41;5069042;28;20192;-83
2022/02/02 01:02:10;;;;;;;2.27;1.80;;;;;;;4.73;97.28;95197.84;5069340;28;20200;-84
2022/02/02 01:04:37;;;;;;;2.70;1.73;;;;;;;4.75;97.21;95196.75;5068849;28;20227;-85
2022/02/02 01:07:10;;;;;;;1.67;1.57;;;;;;;4.74;96.42;95194.34;5069317;28;20208;-83
2022/02/02 01:09:42;;;;;;;1.80;1.70;;;;;;;4.74;97.45;95189.22;5069213;28;20246;-85
2022/02/02 01:12:42;;;;;;;2.90;1.80;;;;;;;4.78;97.69;95201.53;5070992;28;20200;-85
2022/02/02 01:20:50;;;;;;;2.30;1.70;;;;;;;4.71;97.18;95197.19;5071210;28;20278;-85
2022/02/02 01:28:45;;;;;;;1.50;1.40;;;;;;;4.72;97.16;95196.22;5066452;28;20698;-84
2022/02/02 01:31:15;;;;;;;1.43;1.27;;;;;;;4.67;97.57;95190.78;5070244;28;20993;-84
2022/02/02 01:33:42;;;;;;;1.30;1.20;;;;;;;4.75;97.37;95203.59;5071456;28;20231;-85
2022/02/02 01:36:09;;;;;;;1.83;1.43;;;;;;;4.77;97.13;95199.94;5071041;28;20201;-84
2022/02/02 01:38:36;;;;;;;1.50;1.30;;;;;;;4.75;96.95;95194.19;5070686;28;20708;-85
2022/02/02 01:41:07;;;;;;;1.10;1.10;;;;;;;4.83;96.29;95206.16;5070786;28;20197;-84
2022/02/02 01:43:37;;;;;;;1.23;1.13;;;;;;;4.90;96.34;95196.97;5064393;28;20221;-84
2022/02/02 01:46:08;;;;;;;1.27;1.17;;;;;;;4.87;95.12;95189.63;5071741;28;20272;-85
2022/02/02 01:48:42;;;;;;;2.10;0.90;;;;;;;4.87;95.02;95176.88;5068424;28;20216;-83
2022/02/02 01:51:29;;;;;;;1.00;1.00;;;;;;;4.90;95.10;95166.38;5074712;28;20224;-84
2022/02/02 01:54:00;;;;;;;1.07;1.00;;;;;;;4.91;96.43;95177.38;5074210;28;20379;-85
2022/02/02 01:56:27;;;;;;;1.00;1.00;;;;;;;4.90;95.34;95158.72;5074900;28;20228;-84
2022/02/02 01:59:10;;;;;;;1.13;1.03;;;;;;;4.78;96.16;95158.19;5074794;28;20221;-85
2022/02/02 02:01:37;;;;;;;1.03;1.03;;;;;;;4.87;96.29;95156.47;5068938;28;20200;-85
2022/02/02 02:04:05;;;;;;;1.07;1.07;;;;;;;4.85;95.92;95154.06;5073861;28;20251;-85
2022/02/02 02:06:31;;;;;;;1.00;1.00;;;;;;;4.85;96.19;95143.88;5067885;28;20197;-84
2022/02/02 02:08:58;;;;;;;1.17;1.00;;;;;;;4.84;95.69;95146.56;5074001;28;20196;-85
2022/02/02 02:11:25;;;;;;;1.00;1.00;;;;;;;4.94;95.03;95159.22;5074311;28;20612;-85
2022/02/02 02:16:51;;;;;;;1.13;1.10;;;;;;;4.79;95.57;95146.25;5073680;28;20224;-85
2022/02/02 02:19:20;;;;;;;0.90;0.90;;;;;;;4.79;96.01;95129.19;5073114;28;20202;-85
2022/02/02 02:21:49;;;;;;;1.20;1.10;;;;;;;4.75;96.37;95137.28;5074697;28;20275;-85
2022/02/02 02:24:17;;;;;;;1.60;1.10;;;;;;;4.69;96.68;95136.13;5073577;28;20236;-84
2022/02/02 02:26:43;;;;;;;1.53;0.90;;;;;;;4.75;96.55;95142.38;5075012;28;20212;-85
2022/02/02 02:29:31;;;;;;;1.20;1.10;;;;;;;4.82;96.41;95139.06;5073779;28;20807;-85
2022/02/02 02:32:13;;;;;;;1.90;1.30;;;;;;;4.84;96.62;95136.34;5074159;28;20560;-85
2022/02/02 02:34:58;;;;;;;1.50;1.40;;;;;;;4.87;96.14;95143.72;5073650;28;20225;-85
2022/02/02 02:37:38;;;;;;;1.60;1.40;;;;;;;4.84;96.62;95126.97;5072387;28;20216;-85
2022/02/02 02:40:20;;;;;;;1.73;1.37;;;;;;;4.90;96.90;95140.84;5074118;28;20201;-85
2022/02/02 02:56:28;;;;;;;2.57;1.90;;;;;;;5.00;95.17;95167.06;5073012;28;20219;-85
2022/02/02 02:59:03;;;;;;;1.97;1.40;;;;;;;5.05;95.17;95162.28;5073256;28;20658;-83
2022/02/02 03:01:50;;;;;;;2.50;1.70;;;;;;;5.04;95.92;95153.03;5072297;28;20219;-85
2022/02/02 03:31:53;;;;;;;1.50;1.40;;;;;;;4.98;93.83;95152.88;5070932;28;20206;-84
2022/02/02 03:34:42;;;;;;;1.80;1.47;;;;;;;4.94;94.26;95154.13;5070188;28;20232;-84
2022/02/02 03:51:23;;;;;;;2.40;1.70;;;;;;;5.01;93.83;95149.97;5066019;28;20713;-83
2022/02/02 03:56:44;;;;;;;2.70;1.73;;;;;;;5.08;93.64;95153.53;5071926;28;20703;-85
2022/02/02 03:59:33;;;;;;;3.43;1.80;;;;;;;5.04;92.47;95160.69;5072418;28;20593;-84
2022/02/02 04:07:55;;;;;;;4.07;1.50;;;;;;;5.10;91.59;95188.16;5107727;28;20593;-85
2022/02/02 04:10:22;;;;;;;5.50;1.70;;;;;;;5.11;91.59;95166.78;5113068;28;20203;-81
2022/02/02 04:12:55;;;;;;;2.93;1.50;;;;;;;5.11;91.78;95171.88;5111729;27;20199;-84
2022/02/02 04:37:55;;;;;;;1.60;1.20;;;;;;;5.00;96.38;95171.38;5104376;28;20242;-84
2022/02/02 04:51:31;;;;;;;3.00;1.30;;;;;;;4.96;93.97;95175.16;5092762;28;20207;-84
2022/02/02 04:59:43;;;;;;;2.73;1.33;;;;;;;5.00;93.13;95164.53;5089918;28;20669;-84
2022/02/02 05:05:33;;;;;;;3.37;1.60;;;;;;;5.02;93.08;95184.75;5102780;28;20238;-84
2022/02/02 05:08:07;;;;;;;3.37;1.60;;;;;;;5.08;92.86;95182.41;5097725;28;20211;-83
2022/02/02 05:10:44;;;;;;;2.87;1.57;;;;;;;5.04;92.13;95181.09;5104753;28;20250;-84
2022/02/02 05:14:08;;;;;;;2.60;1.30;;;;;;;5.10;91.87;95193.25;5104421;27;20501;-84
2022/02/02 05:16:29;;;;;;;2.40;1.20;;;;;;;5.10;91.94;95205.22;5083044;28;20234;-81
2022/02/02 05:22:27;;;;;;;3.13;1.10;;;;;;;5.12;92.54;95204.13;5087114;28;20218;-82
2022/02/02 05:44:37;;;;;;;1.33;1.13;;;;;;;5.26;91.83;95222.34;5043862;28;20225;-84
2022/02/02 05:50:07;;;;;;;3.10;1.37;;;;;;;5.32;91.44;95232.75;5030845;28;20213;-84
2022/02/02 05:52:36;;;;;;;1.77;1.17;;;;;;;5.31;91.27;95241.38;5031240;28;20240;-84
2022/02/02 05:55:03;;;;;;;1.43;1.20;;;;;;;5.34;91.65;95235.97;5027272;28;20259;-84
2022/02/02 05:57:33;;;;;;;2.03;1.30;;;;;;;5.30;91.56;95237.22;5073661;28;20225;-84
2022/02/02 06:00:04;;;;;;;2.43;1.67;;;;;;;5.31;91.98;95235.47;5074135;28;20196;-84
2022/02/02 06:02:32;;;;;;;3.00;1.60;;;;;;;5.29;92.03;95219.50;5073407;28;20200;-84
2022/02/02 06:05:03;;;;;;;1.80;1.57;;;;;;;5.30;92.11;95227.00;5093185;28;20722;-84
2022/02/02 06:07:34;;;;;;;2.00;1.43;;;;;;;5.29;92.47;95239.91;5094103;28;20247;-84
2022/02/02 06:10:01;;;;;;;3.90;2.03;;;;;;;5.28;92.75;95256.97;5094732;28;21075;-84
2022/02/02 06:12:31;;;;;;;2.77;2.00;;;;;;;5.29;92.76;95243.25;5079056;28;20204;-84
2022/02/02 06:14:59;;;;;;;3.50;2.07;;;;;;;5.22;93.68;95243.06;5073801;28;20231;-83
2022/02/02 06:17:29;;;;;;;3.87;2.03;;;;;;;5.23;94.01;95246.41;5073713;28;20220;-84
2022/02/02 06:19:56;;;;;;;3.90;2.27;;;;;;;5.27;94.20;95257.94;5073326;28;20831;-84
2022/02/02 06:22:29;;;;;;;4.20;2.40;;;;;;;5.16;95.02;95251.34;5073500;28;20212;-84
2022/02/02 06:25:02;;;;;;;7.00;2.60;;;;;;;5.26;95.75;95269.09;5072756;28;20236;-84
2022/02/02 06:27:28;;;;;;;5.03;2.40;;;;;;;5.22;96.73;95283.09;5072259;28;20601;-84
2022/02/02 06:30:02;;;;;;;7.37;3.33;;;;;;;5.20;97.66;95272.22;5073525;28;20208;-84
2022/02/02 06:32:46;;;;;;;5.97;2.83;;;;;;;5.27;97.90;95303.88;5083224;28;20291;-84
2022/02/02 06:35:14;;;;;;;6.17;3.03;;;;;;;5.27;99.27;95310.72;5093049;28;20272;-84
2022/02/02 06:37:43;;;;;;;5.87;2.70;;;;;;;5.32;99.33;95326.41;5093272;28;20292;-84
2022/02/02 06:40:10;;;;;;;6.93;3.00;;;;;;;5.38;100.00;95382.75;5092515;28;20207;-84
2022/02/02 06:42:37;;;;;;;5.80;2.80;;;;;;;5.38;100.00;95362.34;5091837;28;20200;-83
2022/02/02 06:45:05;;;;;;;4.37;2.60;;;;;;;5.43;100.00;95359.31;5093103;28;20220;-84
2022/02/02 06:47:35;;;;;;;4.87;2.77;;;;;;;5.44;100.00;95351.50;5092410;28;20227;-84
2022/02/02 06:50:08;;;;;;;16.67;11.53;;;;;;;5.48;99.58;95340.06;5092686;28;20943;-84
2022/02/02 06:52:43;;;;;;;7.43;3.33;;;;;;;5.36;99.37;95338.72;5092419;28;20604;-84
2022/02/02 06:55:22;;;;;;;5.53;3.00;;;;;;;5.34;99.41;95337.25;5092857;28;20299;-84
2022/02/02 06:58:06;;;;;;;8.03;2.90;;;;;;;5.35;99.36;95344.78;5092950;28;20255;-85
2022/02/02 07:00:42;;;;;;;7.67;3.33;;;;;;;5.36;99.16;95368.53;5093848;28;20199;-85
2022/02/02 07:03:24;;;;;;;7.27;2.67;;;;;;;5.30;99.24;95367.38;5088554;28;20228;-84
2022/02/02 07:06:06;;;;;;;7.20;2.63;;;;;;;5.25;98.48;95361.13;5072446;28;20205;-85
2022/02/02 07:08:47;;;;;;;8.10;2.77;;;;;;;5.23;97.00;95366.38;5072000;28;20217;-84
2022/02/02 07:11:23;;;;;;;8.27;3.10;;;;;;;5.25;95.94;95367.03;5072687;28;20201;-86
2022/02/02 07:14:05;;;;;;;8.00;2.40;;;;;;;5.21;94.47;95371.63;5083825;28;20276;-85
2022/02/02 07:16:38;;;;;;;6.60;2.40;;;;;;;5.22;94.17;95359.66;5094396;28;20751;-84
2022/02/02 07:19:17;;;;;;;9.47;2.70;;;;;;;5.28;93.81;95369.28;5092557;28;20200;-84
2022/02/02 07:30:17;;;;;;;6.67;2.50;;;;;;;5.31;91.64;95340.09;5071770;28;20306;-84
2022/02/02 07:32:51;;;;;;;5.27;2.60;;;;;;;5.29;89.97;95342.00;5072614;28;20743;-85
2022/02/02 07:35:24;;;;;;;8.00;2.37;;;;;;;5.29;89.96;95344.56;5072844;28;20294;-84
2022/02/02 07:37:57;;;;;;;7.83;5.30;;;;;;;5.26;90.08;95343.09;5072155;28;20221;-84
2022/02/02 07:40:26;;;;;;;4.57;2.20;;;;;;;5.25;90.83;95341.50;5072081;28;20287;-84
2022/02/02 07:42:57;;;;;;;8.87;1.90;;;;;;;5.26;90.86;95343.09;5072043;28;20203;-84
2022/02/02 07:45:25;;;;;;;7.97;2.20;;;;;;;5.30;92.02;95346.16;5072668;28;20231;-85
2022/02/02 07:47:59;;;;;;;4.73;2.00;;;;;;;5.39;91.16;95346.03;5071802;28;20224;-84
2022/02/02 07:50:29;;;;;;;4.97;2.10;;;;;;;5.40;90.82;95342.53;5072581;28;20207;-84
2022/02/02 07:53:01;;;;;;;5.63;2.30;;;;;;;5.41;91.76;95358.66;5072164;28;20232;-84
2022/02/02 07:55:29;;;;;;;2.63;1.80;;;;;;;5.43;92.00;95357.56;5080143;28;20236;-84
2022/02/02 07:57:59;;;;;;;7.10;2.30;;;;;;;5.46;92.49;95357.28;5072228;28;20603;-85
2022/02/02 08:00:25;;;;;;;4.93;2.30;;;;;;;5.42;93.71;95365.38;5071910;28;20232;-85
2022/02/02 08:03:03;;;;;;;6.63;2.17;;;;;;;5.30;94.15;95379.34;5071653;28;20691;-84
2022/02/02 08:05:34;;;;;;;5.63;2.30;;;;;;;5.34;94.25;95373.78;5072493;28;20277;-84
2022/02/02 08:08:11;;;;;;;7.97;2.23;;;;;;;5.31;93.25;95383.50;5072837;28;20282;-84
2022/02/02 08:10:40;;;;;;;8.00;2.40;;;;;;;5.35;93.16;95395.03;5071953;28;20207;-84
2022/02/02 08:13:11;;;;;;;10.47;2.50;;;;;;;5.32;92.40;95390.22;5071247;28;20237;-84
2022/02/02 08:15:37;;;;;;;7.17;2.40;;;;;;;5.34;91.94;95386.56;5071762;28;20204;-84
2022/02/02 08:18:04;;;;;;;6.80;2.67;;;;;;;5.33;90.90;95396.91;5071176;28;20259;-84
2022/02/02 08:20:32;;;;;;;5.17;2.40;;;;;;;5.41;90.73;95392.66;5072487;28;20226;-84
2022/02/02 08:22:58;;;;;;;6.93;3.07;;;;;;;5.51;89.82;95405.34;5071768;28;20228;-85
2022/02/02 08:25:27;;;;;;;10.10;2.80;;;;;;;5.58;89.12;95416.53;5071791;28;20232;-84
2022/02/02 08:27:56;;;;;;;11.57;2.80;;;;;;;5.57;87.71;95421.81;5071985;28;20224;-84
2022/02/02 08:30:24;;;;;;;5.23;2.67;;;;;;;5.43;86.80;95425.69;5071598;28;20291;-84
2022/02/02 08:32:56;;;;;;;10.03;2.93;;;;;;;5.41;87.79;95419.94;5071446;28;20660;-84
2022/02/02 08:35:23;;;;;;;9.40;2.83;;;;;;;5.47;86.59;95439.78;5072094;28;20199;-84
2022/02/02 08:37:58;;;;;;;9.50;2.80;;;;;;;5.49;85.84;95453.19;5071299;28;20228;-83
2022/02/02 08:40:30;;;;;;;9.73;3.10;;;;;;;5.49;85.83;95446.34;5071571;28;20253;-84
2022/02/02 08:43:01;;;;;;;7.13;3.00;;;;;;;5.56;84.15;95459.31;5071616;28;20237;-84
2022/02/02 08:45:31;;;;;;;7.10;2.70;;;;;;;5.68;82.73;95459.88;5071294;28;20225;-84
2022/02/02 08:48:01;;;;;;;9.00;2.83;;;;;;;5.76;82.65;95455.63;5070497;28;20231;-84
2022/02/02 08:50:35;;;;;;;8.10;2.70;;;;;;;5.99;80.11;95470.47;5072579;28;20205;-83
2022/02/02 08:53:13;;;;;;;8.67;2.97;;;;;;;6.51;79.91;95471.22;5075242;28;20252;-84
2022/02/02 08:56:06;;;;;;;8.60;2.60;;;;;;;7.20;79.69;95463.22;5088437;28;20234;-82
2022/02/02 08:58:35;;;;;;;6.40;2.43;;;;;;;7.89;74.56;95458.53;5083191;28;20221;-82
2022/02/02 09:01:07;;;;;;;7.70;2.60;;;;;;;7.98;74.93;95460.16;5075828;28;20699;-83
2022/02/02 09:06:17;;;;;;;9.20;2.70;;;;;;;7.51;73.16;95452.34;5078099;28;20620;-85
2022/02/02 09:08:48;;;;;;;11.20;5.83;;;;;;;7.24;74.40;95458.59;5077019;28;20707;-84
2022/02/02 09:25:11;;;;;;;8.63;2.70;;;;;;;7.22;73.30;95453.63;5076455;28;20315;-85
2022/02/02 09:35:52;;;;;;;9.33;2.70;;;;;;;6.86;76.33;95465.91;5097122;28;20273;-85
2022/02/02 09:38:18;;;;;;;8.07;2.73;;;;;;;7.04;76.25;95472.66;5096875;28;20779;-86
2022/02/02 09:43:35;;;;;;;8.40;2.80;;;;;;;7.61;74.55;95481.97;5096864;28;20287;-86
2022/02/02 09:46:06;;;;;;;9.80;2.97;;;;;;;7.97;73.04;95484.19;5096994;28;20295;-85
2022/02/02 09:48:44;;;;;;;7.97;2.80;;;;;;;8.00;72.72;95491.56;5096245;28;20219;-85
2022/02/02 09:51:17;;;;;;;9.13;2.90;;;;;;;7.80;71.99;95493.66;5077142;28;20216;-84
2022/02/02 09:53:53;;;;;;;8.03;2.90;;;;;;;7.58;73.24;95501.97;5075753;28;20304;-85
2022/02/02 09:56:36;;;;;;;7.20;2.73;;;;;;;7.39;74.79;95515.09;5094102;28;20199;-85
2022/02/02 09:59:19;;;;;;;7.70;3.17;;;;;;;7.23;74.42;95509.00;5084287;28;20197;-85
2022/02/02 10:02:14;;;;;;;8.17;2.80;;;;;;;7.06;74.13;95514.25;5075865;28;20205;-84
2022/02/02 10:05:00;;;;;;;8.90;2.80;;;;;;;7.00;75.54;95528.47;5074618;28;20239;-85
2022/02/02 10:07:36;;;;;;;8.73;3.10;;;;;;;6.91;75.83;95522.53;5074838;28;20225;-84
2022/02/02 10:10:22;;;;;;;9.17;2.77;;;;;;;6.93;76.09;95530.03;5074725;28;20245;-84
2022/02/02 10:13:05;;;;;;;7.33;3.00;;;;;;;6.93;76.65;95542.81;5074281;28;20204;-86
2022/02/02 10:15:35;;;;;;;8.00;3.20;;;;;;;6.84;77.26;95539.44;5074337;28;20706;-86
2022/02/02 10:18:05;;;;;;;7.63;2.93;;;;;;;6.84;77.86;95543.78;5073694;28;20228;-85
2022/02/02 10:20:32;;;;;;;7.23;3.10;;;;;;;6.89;77.80;95544.91;5075776;28;20863;-85
2022/02/02 10:23:00;;;;;;;9.53;3.33;;;;;;;6.85;78.38;95542.81;5074284;28;20649;-86
2022/02/02 10:25:30;;;;;;;10.07;3.10;;;;;;;6.73;78.73;95544.84;5074478;28;20766;-85
2022/02/02 10:28:14;;;;;;;7.47;3.03;;;;;;;6.73;79.02;95549.97;5093579;28;20227;-85
2022/02/02 10:30:44;;;;;;;9.17;2.73;;;;;;;6.72;79.13;95547.56;5094858;28;20196;-85
2022/02/02 10:33:12;;;;;;;8.23;3.10;;;;;;;6.74;79.29;95541.31;5094660;28;20227;-85
2022/02/02 10:35:40;;;;;;;6.63;3.40;;;;;;;6.75;78.24;95542.91;5094767;28;20196;-86
2022/02/02 10:38:11;;;;;;;7.23;2.80;;;;;;;6.80;77.78;95542.47;5094370;28;20227;-85
2022/02/02 10:40:47;;;;;;;7.50;2.70;;;;;;;6.80;77.48;95543.28;5087718;28;20260;-85
2022/02/02 10:43:26;;;;;;;11.67;3.90;;;;;;;6.83;76.83;95547.28;5068692;28;20236;-86
2022/02/02 10:45:52;;;;;;;10.60;3.53;;;;;;;6.85;76.55;95550.50;5066884;28;20223;-85
2022/02/02 10:48:28;;;;;;;7.37;3.13;;;;;;;6.77;75.99;95543.56;5073388;28;20259;-85
2022/02/02 10:51:05;;;;;;;18.90;10.20;;;;;;;6.73;76.19;95555.09;5074301;28;20687;-85
2022/02/02 10:53:41;;;;;;;13.17;4.13;;;;;;;6.77;75.27;95569.16;5073163;28;20314;-85
2022/02/02 10:56:25;;;;;;;9.33;3.27;;;;;;;6.75;74.79;95567.69;5073027;28;20648;-84
2022/02/02 10:59:13;;;;;;;8.37;2.90;;;;;;;6.81;74.17;95552.56;5060427;28;20197;-84
2022/02/02 11:01:46;;;;;;;7.17;3.00;;;;;;;6.87;73.81;95559.63;5071533;28;20574;-85
2022/02/02 11:06:59;;;;;;;8.53;3.03;;;;;;;6.88;73.60;95584.25;5071976;28;20303;-84
2022/02/02 11:09:26;;;;;;;8.93;2.80;;;;;;;6.81;74.38;95580.69;5073068;28;20196;-84
2022/02/02 11:11:54;;;;;;;10.07;3.33;;;;;;;6.80;74.54;95575.72;5073996;28;20201;-85
2022/02/02 11:14:32;;;;;;;10.87;3.40;;;;;;;6.86;74.36;95585.38;5086811;28;20227;-85
2022/02/02 11:17:04;;;;;;;10.87;2.87;;;;;;;6.79;75.06;95597.97;5095009;28;20345;-87
2022/02/02 11:19:35;;;;;;;7.83;2.50;;;;;;;6.76;74.65;95582.91;5091440;28;20211;-85
2022/02/02 11:22:30;;;;;;;7.33;3.80;;;;;;;6.76;74.02;95579.53;5094688;28;20196;-86
2022/02/02 11:24:58;;;;;;;10.63;3.50;;;;;;;6.84;74.30;95577.03;5093654;28;20227;-85
2022/02/02 11:27:37;;;;;;;9.03;2.97;;;;;;;6.82;74.03;95582.31;5093866;28;20220;-86
2022/02/02 11:30:07;;;;;;;10.37;3.10;;;;;;;6.86;73.90;95586.16;5086255;28;20197;-85
2022/02/02 11:32:43;;;;;;;10.67;2.73;;;;;;;6.94;73.07;95586.19;5073824;28;20676;-83
2022/02/02 11:35:36;;;;;;;11.80;3.20;;;;;;;6.94;72.74;95586.19;5052835;28;20225;-85
2022/02/02 11:38:06;;;;;;;9.53;3.40;;;;;;;6.96;72.99;95572.44;5053076;28;20663;-85
2022/02/02 11:40:40;;;;;;;10.33;3.27;;;;;;;7.01;72.16;95583.00;5062507;28;20240;-85
2022/02/02 11:43:12;;;;;;;11.10;4.07;;;;;;;7.03;71.77;95574.22;5064627;28;20255;-85
2022/02/02 11:45:55;;;;;;;17.37;8.27;;;;;;;7.03;71.13;95566.56;5073123;28;20231;-85
2022/02/02 11:49:03;;;;;;;11.27;3.87;;;;;;;7.07;70.98;95570.41;5072394;28;20222;-84
2022/02/02 11:51:40;;;;;;;8.80;3.10;;;;;;;7.20;71.29;95562.28;5072527;28;20250;-85
2022/02/02 11:54:08;;;;;;;11.37;3.60;;;;;;;7.28;71.48;95568.25;5071887;28;20243;-85
2022/02/02 11:57:10;;;;;;;10.13;4.13;;;;;;;7.25;71.04;95555.75;5073293;28;20196;-85
2022/02/02 11:59:52;;;;;;;10.27;3.20;;;;;;;7.28;71.61;95558.00;5072867;28;20208;-85
2022/02/02 12:02:35;;;;;;;12.33;3.37;;;;;;;7.32;71.48;95547.41;5072889;28;20860;-85
2022/02/02 12:05:12;;;;;;;7.77;3.30;;;;;;;7.32;71.17;95555.09;5072417;28;20276;-84
2022/02/02 12:07:54;;;;;;;13.70;3.63;;;;;;;7.23;71.69;95564.53;5072624;28;20220;-85
2022/02/02 12:10:54;;;;;;;9.90;3.07;;;;;;;7.21;70.69;95569.00;5072037;28;20207;-85
2022/02/02 12:19:30;;;;;;;14.43;8.10;;;;;;;7.31;70.08;95553.53;5072594;28;20208;-85
2022/02/02 12:28:01;;;;;;;7.73;2.70;;;;;;;7.19;68.83;95558.91;5077528;28;20220;-85
2022/02/02 12:44:52;;;;;;;6.53;2.80;;;;;;;7.78;68.38;95569.91;5077327;28;20290;-84
2022/02/02 12:47:24;;;;;;;7.17;2.53;;;;;;;8.22;64.52;95565.25;5077273;28;20737;-85
2022/02/02 12:50:15;;;;;;;8.37;2.47;;;;;;;8.07;65.68;95573.75;5076339;28;20224;-85
2022/02/02 12:58:18;;;;;;;4.83;1.77;;;;;;;8.17;65.50;95553.88;5069929;28;20698;-85
2022/02/02 13:01:07;;;;;;;6.43;2.20;;;;;;;7.92;65.37;95564.13;5095207;28;20632;-83
2022/02/02 13:03:34;;;;;;;6.40;2.60;;;;;;;7.85;66.18;95580.31;5090351;28;20781;-85
2022/02/02 13:06:01;;;;;;;9.37;2.90;;;;;;;7.75;66.61;95600.97;5076919;28;20230;-84
2022/02/02 13:08:29;;;;;;;6.77;2.80;;;;;;;7.69;67.48;95586.25;5076317;28;20217;-84
2022/02/02 13:10:56;;;;;;;8.30;3.07;;;;;;;7.70;67.77;95597.31;5076598;28;20207;-85
2022/02/02 13:13:25;;;;;;;8.67;3.20;;;;;;;7.79;68.16;95601.47;5074858;28;20224;-85
2022/02/02 13:16:02;;;;;;;13.17;8.50;;;;;;;7.67;68.48;95602.72;5075154;28;20211;-85
2022/02/02 13:18:34;;;;;;;7.73;3.27;;;;;;;7.63;68.88;95603.03;5091455;28;20224;-85
2022/02/02 13:21:07;;;;;;;8.57;2.67;;;;;;;7.58;69.53;95630.09;5097059;28;20382;-84
2022/02/02 13:23:52;;;;;;;12.27;3.57;;;;;;;7.56;70.33;95625.13;5076324;28;20290;-85
2022/02/02 13:26:29;;;;;;;10.83;3.40;;;;;;;7.53;69.78;95625.44;5060810;28;20597;-82
2022/02/02 13:29:02;;;;;;;8.90;3.20;;;;;;;7.53;70.26;95627.19;5056235;28;20215;-85
2022/02/02 13:31:48;;;;;;;12.17;3.93;;;;;;;7.47;70.61;95620.16;5056404;28;20205;-85
2022/02/02 13:34:23;;;;;;;9.07;3.10;;;;;;;7.41;71.31;95626.69;5063438;28;20278;-85
2022/02/02 13:37:12;;;;;;;12.70;3.47;;;;;;;7.35;70.73;95634.97;5075560;28;20311;-85
2022/02/02 13:48:27;;;;;;;9.40;3.30;;;;;;;7.28;72.06;95657.88;5075559;28;20216;-84
2022/02/02 13:51:10;;;;;;;12.10;3.40;;;;;;;7.33;72.29;95657.38;5075424;28;20613;-85
2022/02/02 14:02:12;;;;;;;8.90;3.97;;;;;;;7.41;71.09;95675.34;5071901;28;20203;-85
2022/02/02 14:04:58;;;;;;;10.33;2.93;;;;;;;7.40;71.25;95683.19;5074258;28;20315;-85
2022/02/02 14:07:31;;;;;;;11.00;3.43;;;;;;;7.45;71.06;95699.72;5075267;28;20225;-85
2022/02/02 14:10:12;;;;;;;7.97;3.00;;;;;;;7.41;71.69;95695.03;5075828;28;20255;-85
2022/02/02 14:32:00;;;;;;;6.43;2.77;;;;;;;6.93;77.12;95745.03;5053981;28;20235;-84
2022/02/02 14:34:26;;;;;;;6.07;1.90;;;;;;;7.11;75.51;95747.56;5074127;28;20236;-85
2022/02/02 14:36:53;;;;;;;6.00;2.00;;;;;;;7.30;73.66;95746.53;5068783;28;20205;-88
2022/02/02 14:39:24;;;;;;;8.40;2.50;;;;;;;7.56;72.21;95758.34;5063955;28;20197;-84
2022/02/02 14:41:55;;;;;;;7.07;2.60;;;;;;;7.92;71.56;95765.84;5060495;28;20190;-87
2022/02/02 14:44:27;;;;;;;10.47;5.63;;;;;;;8.04;69.62;95766.38;5073563;28;20723;-86
2022/02/02 14:47:01;;;;;;;10.30;5.93;;;;;;;7.91;68.72;95777.06;5074126;28;20561;-86
2022/02/02 14:49:34;;;;;;;5.63;2.13;;;;;;;7.81;68.68;95776.41;5072121;28;20246;-85
2022/02/02 14:52:06;;;;;;;6.83;2.73;;;;;;;7.76;68.57;95781.97;5063888;28;20198;-85
2022/02/02 15:25:16;;;;;;;8.13;2.67;;;;;;;7.29;72.00;95825.13;5090939;28;20243;-82
2022/02/02 15:27:52;;;;;;;6.87;2.40;;;;;;;7.33;72.03;95825.59;5090664;28;20857;-84
2022/02/02 15:30:26;;;;;;;7.53;2.30;;;;;;;7.25;70.37;95834.06;5086241;28;20239;-84
2022/02/02 15:32:57;;;;;;;7.43;2.93;;;;;;;7.26;69.72;95828.78;5070720;28;20204;-84
2022/02/02 15:35:25;;;;;;;5.93;2.40;;;;;;;7.26;68.35;95833.09;5070604;28;20200;-84
2022/02/02 15:37:58;;;;;;;8.13;3.00;;;;;;;7.26;68.18;95836.47;5071642;28;20298;-85
2022/02/02 15:40:29;;;;;;;10.10;2.90;;;;;;;7.26;67.11;95840.78;5070329;28;20725;-84
2022/02/02 15:43:06;;;;;;;7.27;2.60;;;;;;;7.28;66.28;95847.38;5090566;28;20197;-82
2022/02/02 15:59:28;;;;;;;7.00;2.50;;;;;;;7.22;63.88;95878.69;5072135;28;20234;-85
2022/02/02 16:02:10;;;;;;;3.50;2.10;;;;;;;7.23;63.07;95882.88;5071996;28;20205;-85
2022/02/02 16:04:39;;;;;;;5.43;2.33;;;;;;;7.21;62.71;95887.31;5070610;28;20216;-84
2022/02/02 16:07:09;;;;;;;5.20;2.07;;;;;;;7.22;62.62;95883.00;5074211;28;20247;-85
2022/02/02 16:09:45;;;;;;;6.13;2.30;;;;;;;7.23;62.39;95889.75;5085721;28;20219;-84
2022/02/02 16:12:16;;;;;;;7.93;2.47;;;;;;;7.21;62.87;95894.19;5081366;28;20198;-85
2022/02/02 16:14:46;;;;;;;5.90;2.20;;;;;;;7.20;63.04;95892.59;5086029;28;20307;-84
2022/02/02 16:31:31;;;;;;;8.77;3.03;;;;;;;7.19;62.40;95896.91;5075164;28;20248;-83
2022/02/02 16:34:40;;;;;;;9.83;2.90;;;;;;;7.18;62.16;95902.97;5069265;28;20227;-84
2022/02/02 16:37:02;;;;;;;8.97;2.67;;;;;;;7.10;62.82;95894.44;5070603;28;20216;-85
2022/02/02 16:39:29;;;;;;;7.47;2.90;;;;;;;7.12;62.40;95902.78;5070541;28;20197;-85
2022/02/02 16:44:39;;;;;;;6.27;3.43;;;;;;;7.05;62.12;95905.13;5080178;28;20252;-85
2022/02/02 16:47:07;;;;;;;9.23;3.70;;;;;;;7.07;62.90;95913.47;5086719;28;20728;-85
2022/02/02 16:49:33;;;;;;;8.17;3.30;;;;;;;7.07;62.48;95915.22;5076180;28;20640;-85
2022/02/02 16:52:01;;;;;;;5.33;2.43;;;;;;;6.97;63.09;95915.28;5074878;28;20207;-83
2022/02/02 16:54:32;;;;;;;6.57;2.77;;;;;;;6.98;63.28;95910.97;5090424;28;20254;-84
2022/02/02 16:57:10;;;;;;;9.50;3.33;;;;;;;6.94;63.22;95920.69;5087917;28;20236;-85
2022/02/02 17:24:46;;;;;;;7.53;3.03;;;;;;;6.99;64.63;95954.34;5094234;28;20233;-85
2022/02/02 17:30:11;;;;;;;5.40;2.40;;;;;;;6.93;67.38;95960.03;5094557;28;20678;-85
2022/02/02 17:32:47;;;;;;;8.63;2.77;;;;;;;6.89;67.91;95961.28;5093821;28;20196;-85
2022/02/02 17:35:29;;;;;;;6.43;2.70;;;;;;;6.87;68.33;95970.84;5095249;28;20214;-86
2022/02/02 17:38:06;;;;;;;10.30;3.70;;;;;;;6.80;69.04;95965.50;5094860;28;20228;-85
2022/02/02 17:40:44;;;;;;;7.17;3.27;;;;;;;6.75;69.58;95965.13;5094515;28;20204;-85
2022/02/02 17:43:38;;;;;;;10.83;3.53;;;;;;;6.77;70.18;95965.78;5093726;28;20911;-84
2022/02/02 17:56:04;;;;;;;5.63;3.17;;;;;;;6.69;70.94;95973.38;5073858;28;20234;-86
2022/02/02 17:58:12;;;;;;;7.33;3.27;;;;;;;6.52;72.79;95982.63;5073693;28;20216;-83
2022/02/02 18:01:02;;;;;;;6.97;3.43;;;;;;;6.51;73.02;95983.56;5074204;28;20280;-81
2022/02/02 18:18:25;;;;;;;6.97;3.30;;;;;;;6.35;74.53;96026.81;5073181;28;20212;-86
2022/02/02 18:20:31;;;;;;;6.30;3.13;;;;;;;6.32;75.27;96016.09;5073162;28;20228;-84
2022/02/02 18:23:05;;;;;;;9.70;3.50;;;;;;;6.37;74.67;96024.94;5074897;28;20388;-84